Time;durP1;ratioP1;P1;durP2;ratioP2;P2;SDS_P1;SDS_P2;PMS_P1;PMS_P2;Temp;Humidity;BMP_temperature;BMP_pressure;BME280_temperature;BME280_humidity;BME280_pressure;Samples;Min_cycle;Max_cycle;Signal;HPM_P1;HPM_P2
2021/07/26 00:02:25;;;;;;;27.63;12.83;;;15.70;99.90;;;;;;4922290;29;20297;-55
2021/07/26 00:04:51;;;;;;;43.30;12.43;;;15.70;99.90;;;;;;4921385;28;20605;-53
2021/07/26 00:07:16;;;;;;;31.67;10.27;;;15.70;99.90;;;;;;4925670;28;20202;-54
2021/07/26 00:09:42;;;;;;;42.57;12.03;;;15.70;99.90;;;;;;4920383;29;20183;-54
2021/07/26 00:12:09;;;;;;;89.47;12.87;;;15.70;99.90;;;;;;4948369;28;20261;-54
2021/07/26 00:14:35;;;;;;;40.17;11.10;;;15.60;99.90;;;;;;4942544;28;20190;-56
2021/07/26 00:17:03;;;;;;;38.57;12.33;;;15.60;99.90;;;;;;4923070;29;20488;-55
2021/07/26 00:19:28;;;;;;;22.90;9.80;;;15.60;99.90;;;;;;4927886;28;20655;-55
2021/07/26 00:21:54;;;;;;;33.13;10.50;;;15.60;99.90;;;;;;4924836;29;20467;-54
2021/07/26 00:24:20;;;;;;;46.03;12.30;;;15.60;99.90;;;;;;4918271;29;20312;-55
2021/07/26 00:26:47;;;;;;;27.73;11.57;;;15.50;99.90;;;;;;4958131;28;20210;-54
2021/07/26 00:29:12;;;;;;;56.83;11.43;;;15.50;99.90;;;;;;4923925;29;20427;-54
2021/07/26 00:31:38;;;;;;;21.90;11.27;;;15.50;99.90;;;;;;4926890;29;21021;-55
2021/07/26 00:34:19;;;;;;;41.20;11.60;;;15.50;99.90;;;;;;4926349;28;20178;-55
2021/07/26 00:36:47;;;;;;;39.40;11.90;;;15.50;99.90;;;;;;4949845;28;20275;-56
2021/07/26 00:39:15;;;;;;;27.03;11.27;;;15.50;99.90;;;;;;4939939;29;20434;-55
2021/07/26 00:41:42;;;;;;;32.83;10.43;;;15.40;99.90;;;;;;4951692;28;20590;-55
2021/07/26 00:44:08;;;;;;;26.10;10.60;;;15.50;99.90;;;;;;4942158;29;20473;-55
2021/07/26 00:46:35;;;;;;;24.40;9.77;;;15.50;99.90;;;;;;4944151;28;20466;-55
2021/07/26 00:49:04;;;;;;;21.20;10.73;;;15.50;99.90;;;;;;4943176;28;20175;-55
2021/07/26 00:51:30;;;;;;;24.80;12.10;;;15.50;99.90;;;;;;4927500;29;20494;-55
2021/07/26 00:53:56;;;;;;;29.87;11.63;;;15.50;99.90;;;;;;4926955;29;20810;-55
2021/07/26 00:56:23;;;;;;;35.23;11.93;;;15.50;99.90;;;;;;4926822;29;20474;-56
2021/07/26 00:58:49;;;;;;;27.73;11.63;;;15.50;99.90;;;;;;4925359;29;20481;-54
2021/07/26 01:01:17;;;;;;;27.90;11.10;;;15.40;99.90;;;;;;4926802;28;20578;-54
2021/07/26 01:03:43;;;;;;;21.60;10.13;;;15.40;99.90;;;;;;4926314;29;20737;-54
2021/07/26 01:06:11;;;;;;;31.70;12.07;;;15.40;99.90;;;;;;4928823;29;20426;-55
2021/07/26 01:08:36;;;;;;;29.80;10.87;;;15.40;99.90;;;;;;4928796;29;20877;-54
2021/07/26 01:11:05;;;;;;;32.73;12.10;;;15.40;99.90;;;;;;4926774;29;20422;-56
2021/07/26 01:13:31;;;;;;;44.47;12.77;;;15.40;99.90;;;;;;4931510;29;20187;-55
2021/07/26 01:15:58;;;;;;;36.40;12.10;;;15.40;99.90;;;;;;4931591;29;20525;-55
2021/07/26 01:18:23;;;;;;;45.23;12.93;;;15.40;99.90;;;;;;4943034;28;20513;-55
2021/07/26 01:21:01;;;;;;;34.77;12.77;;;15.40;99.90;;;;;;4930607;29;20472;-54
2021/07/26 01:23:29;;;;;;;36.77;11.80;;;15.40;99.90;;;;;;4942182;29;20232;-53
2021/07/26 01:25:55;;;;;;;47.03;12.90;;;15.40;99.90;;;;;;4937302;28;20863;-55
2021/07/26 01:28:23;;;;;;;50.87;13.47;;;15.40;99.90;;;;;;4927710;29;20474;-55
2021/07/26 01:30:49;;;;;;;25.87;12.10;;;15.40;99.90;;;;;;4930171;29;20453;-55
2021/07/26 01:33:17;;;;;;;40.50;13.33;;;15.40;99.90;;;;;;4926361;28;20433;-54
2021/07/26 01:35:44;;;;;;;47.43;16.93;;;15.40;99.90;;;;;;4924990;29;20450;-55
2021/07/26 01:38:10;;;;;;;42.30;14.93;;;15.40;99.90;;;;;;4923947;28;20450;-56
2021/07/26 01:40:39;;;;;;;34.20;13.90;;;15.40;99.90;;;;;;4943464;28;20537;-56
2021/07/26 01:43:06;;;;;;;32.60;13.37;;;15.30;99.90;;;;;;4928131;28;20185;-55
2021/07/26 01:45:39;;;;;;;31.10;11.43;;;15.30;99.90;;;;;;4932521;28;20540;-54
2021/07/26 01:48:13;;;;;;;26.60;12.47;;;15.30;99.90;;;;;;4964775;28;20450;-56
2021/07/26 01:50:46;;;;;;;29.60;10.73;;;15.20;99.90;;;;;;4929320;29;20426;-55
2021/07/26 01:53:13;;;;;;;20.83;8.00;;;15.20;99.90;;;;;;4925734;28;20425;-54
2021/07/26 01:55:39;;;;;;;28.83;8.80;;;15.20;99.90;;;;;;4952552;28;21237;-54
2021/07/26 01:58:04;;;;;;;24.63;9.40;;;15.20;99.90;;;;;;4938987;28;20458;-54
2021/07/26 02:00:30;;;;;;;18.60;9.27;;;15.10;99.90;;;;;;4938029;28;20178;-55
2021/07/26 02:02:56;;;;;;;28.80;11.40;;;15.10;99.90;;;;;;4942788;28;20542;-56
2021/07/26 02:05:21;;;;;;;33.47;12.43;;;15.10;99.90;;;;;;4932604;29;20225;-55
2021/07/26 02:07:47;;;;;;;29.90;13.27;;;15.10;99.90;;;;;;4931792;29;20917;-54
2021/07/26 02:10:13;;;;;;;33.80;12.90;;;15.10;99.90;;;;;;4933121;29;20552;-55
2021/07/26 02:12:38;;;;;;;30.33;13.60;;;15.10;99.90;;;;;;4932173;29;20189;-55
2021/07/26 02:15:05;;;;;;;30.13;12.90;;;15.10;99.90;;;;;;4931594;29;20307;-52
2021/07/26 02:17:31;;;;;;;36.17;14.07;;;15.10;99.90;;;;;;4916100;29;20213;-54
2021/07/26 02:19:56;;;;;;;32.03;11.70;;;15.10;99.90;;;;;;4932727;29;20438;-54
2021/07/26 02:22:22;;;;;;;35.00;11.60;;;15.10;99.90;;;;;;4927875;29;20241;-55
2021/07/26 02:24:47;;;;;;;28.67;10.40;;;15.20;99.90;;;;;;4921639;29;20242;-55
2021/07/26 02:27:14;;;;;;;23.30;11.50;;;15.20;99.90;;;;;;4938456;28;20211;-54
2021/07/26 02:29:40;;;;;;;26.10;11.93;;;15.20;99.90;;;;;;4948116;29;20179;-54
2021/07/26 02:32:06;;;;;;;26.87;11.37;;;15.20;99.90;;;;;;4940847;29;20445;-55
2021/07/26 02:34:32;;;;;;;29.03;9.67;;;15.20;99.90;;;;;;4946770;28;20409;-55
2021/07/26 02:36:58;;;;;;;21.00;9.30;;;15.20;99.90;;;;;;4936408;28;20885;-55
2021/07/26 02:39:23;;;;;;;18.70;9.03;;;15.20;99.90;;;;;;4946614;29;20182;-56
2021/07/26 02:41:49;;;;;;;16.87;9.67;;;15.20;99.90;;;;;;4931672;29;20213;-54
2021/07/26 02:44:14;;;;;;;17.43;8.73;;;15.30;99.90;;;;;;4934372;29;20268;-55
2021/07/26 02:46:40;;;;;;;24.73;8.80;;;15.30;99.90;;;;;;4932165;29;20578;-56
2021/07/26 02:49:06;;;;;;;14.80;7.80;;;15.30;99.90;;;;;;4933111;28;20558;-55
2021/07/26 02:51:31;;;;;;;17.83;8.70;;;15.30;99.90;;;;;;4929761;29;20231;-53
2021/07/26 02:53:57;;;;;;;19.40;9.17;;;15.30;99.90;;;;;;4928911;29;20186;-56
2021/07/26 02:56:23;;;;;;;13.80;7.77;;;15.30;99.90;;;;;;4941934;29;20214;-56
2021/07/26 02:58:48;;;;;;;17.43;9.10;;;15.30;99.90;;;;;;4928256;29;20526;-53
2021/07/26 03:01:16;;;;;;;16.60;8.90;;;15.30;99.90;;;;;;4930405;29;20206;-55
2021/07/26 03:03:44;;;;;;;23.13;8.47;;;15.30;99.90;;;;;;4930177;28;20175;-55
2021/07/26 03:06:28;;;;;;;16.73;9.13;;;15.30;99.90;;;;;;4931662;29;20694;-54
2021/07/26 03:08:54;;;;;;;20.70;9.20;;;15.30;99.90;;;;;;4932382;29;20489;-53
2021/07/26 03:11:19;;;;;;;17.90;9.57;;;15.40;99.90;;;;;;4930000;29;20984;-55
2021/07/26 03:13:45;;;;;;;24.60;9.50;;;15.40;99.90;;;;;;4930443;29;20190;-55
2021/07/26 03:16:12;;;;;;;18.73;8.80;;;15.40;99.90;;;;;;4928858;29;20189;-55
2021/07/26 03:18:39;;;;;;;19.70;9.50;;;15.40;99.90;;;;;;4924365;29;20447;-54
2021/07/26 03:21:05;;;;;;;27.03;10.27;;;15.40;99.90;;;;;;4932529;29;20488;-54
2021/07/26 03:23:31;;;;;;;20.77;9.90;;;15.40;99.90;;;;;;4938465;29;20434;-55
2021/07/26 03:25:58;;;;;;;19.63;10.00;;;15.40;99.90;;;;;;4931785;28;20418;-54
2021/07/26 03:28:23;;;;;;;19.00;9.57;;;15.50;99.90;;;;;;4941297;28;20430;-55
2021/07/26 03:30:49;;;;;;;21.23;8.97;;;15.40;99.90;;;;;;4930858;29;20486;-55
2021/07/26 03:33:15;;;;;;;25.23;8.90;;;15.40;99.90;;;;;;4945362;28;20552;-55
2021/07/26 03:35:41;;;;;;;13.60;7.73;;;15.40;99.90;;;;;;4919603;29;20185;-54
2021/07/26 03:38:07;;;;;;;19.27;8.10;;;15.40;99.90;;;;;;4945672;29;20245;-54
2021/07/26 03:40:34;;;;;;;10.93;6.60;;;15.40;99.90;;;;;;4945082;29;20265;-54
2021/07/26 03:43:01;;;;;;;14.37;6.17;;;15.40;99.90;;;;;;4929482;28;20447;-55
2021/07/26 03:45:28;;;;;;;14.57;6.30;;;15.40;99.90;;;;;;4955670;28;20919;-55
2021/07/26 03:47:56;;;;;;;9.77;6.20;;;15.30;99.90;;;;;;4952883;28;20441;-53
2021/07/26 03:50:22;;;;;;;8.20;5.47;;;15.30;99.90;;;;;;4965347;28;20417;-53
2021/07/26 03:52:50;;;;;;;17.23;7.87;;;15.30;99.90;;;;;;4940537;29;20732;-55
2021/07/26 03:55:27;;;;;;;13.10;6.17;;;15.30;99.90;;;;;;4920757;29;20434;-55
2021/07/26 03:57:58;;;;;;;12.87;6.60;;;15.30;99.90;;;;;;4945735;28;20460;-54
2021/07/26 04:00:25;;;;;;;15.40;6.50;;;15.30;99.90;;;;;;4928706;28;20525;-55
2021/07/26 04:05:35;;;;;;;22.50;8.90;;;15.30;99.90;;;;;;4947585;28;20432;-53
2021/07/26 04:08:06;;;;;;;21.57;8.63;;;15.30;99.90;;;;;;4951951;28;20500;-54
2021/07/26 04:10:33;;;;;;;20.77;7.97;;;15.30;99.90;;;;;;4949198;29;20516;-53
2021/07/26 04:12:59;;;;;;;18.20;8.57;;;15.30;99.90;;;;;;4949848;29;20492;-54
2021/07/26 04:15:25;;;;;;;19.47;8.90;;;15.20;99.90;;;;;;4931106;28;20460;-54
2021/07/26 04:17:50;;;;;;;20.27;9.07;;;15.20;99.90;;;;;;4945301;28;20233;-53
2021/07/26 04:20:16;;;;;;;22.00;9.17;;;15.30;99.90;;;;;;4944954;28;20242;-54
2021/07/26 04:22:41;;;;;;;26.53;9.50;;;15.30;99.90;;;;;;4945306;28;20210;-54
2021/07/26 04:25:08;;;;;;;16.80;8.53;;;15.30;99.90;;;;;;4925577;29;20201;-54
2021/07/26 04:27:35;;;;;;;30.30;10.70;;;15.30;99.90;;;;;;4927527;28;20615;-54
2021/07/26 04:30:02;;;;;;;25.73;10.03;;;15.40;99.90;;;;;;4945794;28;20505;-54
2021/07/26 04:32:28;;;;;;;24.93;9.57;;;15.30;99.90;;;;;;4941125;28;21274;-54
2021/07/26 04:34:59;;;;;;;38.60;11.70;;;15.40;99.90;;;;;;4940178;29;20426;-53
2021/07/26 04:37:25;;;;;;;34.27;11.10;;;15.40;99.90;;;;;;4948894;28;20258;-55
2021/07/26 04:39:50;;;;;;;33.60;10.90;;;15.40;99.90;;;;;;4948865;28;20474;-54
2021/07/26 04:42:16;;;;;;;38.43;11.30;;;15.40;99.90;;;;;;4944752;28;20205;-53
2021/07/26 04:44:42;;;;;;;40.33;12.40;;;15.30;99.90;;;;;;4945222;28;20214;-54
2021/07/26 04:47:08;;;;;;;29.80;11.07;;;15.30;99.90;;;;;;4947042;28;20796;-54
2021/07/26 04:49:34;;;;;;;33.60;10.50;;;15.40;99.90;;;;;;4946039;28;20178;-54
2021/07/26 04:51:59;;;;;;;32.27;11.30;;;15.30;99.90;;;;;;4950103;28;20448;-52
2021/07/26 04:54:25;;;;;;;31.37;11.57;;;15.40;99.90;;;;;;4928708;29;20187;-53
2021/07/26 04:56:50;;;;;;;35.60;11.50;;;15.40;99.90;;;;;;4946309;28;20289;-52
2021/07/26 04:59:16;;;;;;;37.63;11.80;;;15.40;99.90;;;;;;4947971;28;20233;-55
2021/07/26 05:01:42;;;;;;;45.80;11.50;;;15.50;99.90;;;;;;4953266;28;20285;-54
2021/07/26 05:04:07;;;;;;;40.43;11.43;;;15.40;99.90;;;;;;4946599;29;20767;-54
2021/07/26 05:06:33;;;;;;;33.03;10.83;;;15.50;99.90;;;;;;4931149;28;20198;-55
2021/07/26 05:08:58;;;;;;;34.70;12.13;;;15.50;99.90;;;;;;4952290;28;20202;-53
2021/07/26 05:11:24;;;;;;;74.13;19.40;;;15.50;99.90;;;;;;4948329;28;20250;-53
2021/07/26 05:13:50;;;;;;;75.10;18.40;;;15.60;99.90;;;;;;4948716;28;20281;-55
2021/07/26 05:16:15;;;;;;;69.40;16.47;;;15.60;99.90;;;;;;4954757;28;20668;-55
2021/07/26 05:18:41;;;;;;;58.07;17.33;;;15.70;99.90;;;;;;4948453;28;20242;-55
2021/07/26 05:21:06;;;;;;;83.13;18.83;;;15.70;99.90;;;;;;4954548;28;20769;-54
2021/07/26 05:23:32;;;;;;;70.50;19.40;;;15.70;99.90;;;;;;4931078;28;20191;-54
2021/07/26 05:25:58;;;;;;;69.93;20.83;;;15.80;99.90;;;;;;4949429;28;20236;-55
2021/07/26 05:28:23;;;;;;;83.40;21.60;;;15.80;99.90;;;;;;4948408;28;20206;-53
2021/07/26 05:30:49;;;;;;;79.40;20.67;;;15.80;99.90;;;;;;4926898;29;20794;-53
2021/07/26 05:33:14;;;;;;;77.00;22.70;;;15.80;99.90;;;;;;4943923;28;20262;-53
2021/07/26 05:35:41;;;;;;;67.50;20.77;;;15.80;99.90;;;;;;4944165;28;20170;-54
2021/07/26 05:38:07;;;;;;;51.43;17.80;;;15.90;99.90;;;;;;4948499;28;20194;-55
2021/07/26 05:40:35;;;;;;;44.00;16.40;;;16.00;99.90;;;;;;4947631;28;20488;-54
2021/07/26 05:43:00;;;;;;;38.40;14.70;;;16.10;99.90;;;;;;4949475;28;20544;-52
2021/07/26 05:45:26;;;;;;;41.37;14.83;;;16.10;99.90;;;;;;4947753;28;20461;-54
2021/07/26 05:47:52;;;;;;;45.00;14.17;;;16.20;99.90;;;;;;4932624;28;20226;-54
2021/07/26 05:50:19;;;;;;;38.80;14.33;;;16.30;99.90;;;;;;4934583;29;20182;-54
2021/07/26 05:52:48;;;;;;;43.20;15.70;;;16.30;99.90;;;;;;4942451;29;20667;-53
2021/07/26 05:55:14;;;;;;;49.03;15.40;;;16.30;99.90;;;;;;4950389;28;20474;-55
2021/07/26 05:57:45;;;;;;;40.37;14.90;;;16.40;99.90;;;;;;4933305;29;20476;-53
2021/07/26 06:00:13;;;;;;;30.23;13.00;;;16.50;99.90;;;;;;4959038;28;20437;-53
2021/07/26 06:02:39;;;;;;;22.77;11.00;;;16.60;99.90;;;;;;4963678;28;20815;-57
2021/07/26 06:05:05;;;;;;;28.67;12.07;;;16.80;99.90;;;;;;4935792;28;20417;-53
2021/07/26 06:07:30;;;;;;;29.67;11.43;;;16.80;99.90;;;;;;4937305;28;20201;-53
2021/07/26 06:09:56;;;;;;;24.97;11.30;;;16.90;99.90;;;;;;4955374;28;20456;-52
2021/07/26 06:12:23;;;;;;;24.07;11.30;;;16.90;99.90;;;;;;4950883;28;20635;-55
2021/07/26 06:14:49;;;;;;;22.47;11.53;;;16.90;99.90;;;;;;4947780;28;20179;-53
2021/07/26 06:17:17;;;;;;;23.77;11.90;;;16.90;99.90;;;;;;4939490;29;20459;-54
2021/07/26 06:19:42;;;;;;;21.20;11.40;;;16.90;99.90;;;;;;4930895;29;20179;-52
2021/07/26 06:22:08;;;;;;;30.73;11.90;;;17.00;99.90;;;;;;4946399;29;20804;-53
2021/07/26 06:24:34;;;;;;;28.23;10.60;;;17.00;99.90;;;;;;4946613;28;20201;-53
2021/07/26 06:27:00;;;;;;;27.00;11.33;;;17.00;99.90;;;;;;4947666;28;20583;-55
2021/07/26 06:29:26;;;;;;;27.03;11.90;;;17.00;99.90;;;;;;4961538;28;20683;-53
2021/07/26 06:31:52;;;;;;;21.77;11.97;;;17.10;99.90;;;;;;4952660;28;20468;-53
2021/07/26 06:34:18;;;;;;;27.40;12.37;;;17.10;99.90;;;;;;4956944;28;20178;-52
2021/07/26 06:36:44;;;;;;;26.13;11.40;;;17.20;99.90;;;;;;4957658;28;20460;-54
2021/07/26 06:39:10;;;;;;;17.77;10.03;;;17.20;99.90;;;;;;4945791;28;20254;-53
2021/07/26 06:41:37;;;;;;;17.70;11.00;;;17.40;99.90;;;;;;4956814;28;20210;-52
2021/07/26 06:44:03;;;;;;;18.20;10.87;;;17.40;99.90;;;;;;4931368;29;20273;-53
2021/07/26 06:46:29;;;;;;;17.63;9.67;;;17.50;99.90;;;;;;4946267;28;20453;-53
2021/07/26 06:48:54;;;;;;;19.43;9.83;;;17.40;99.90;;;;;;4944592;28;20427;-52
2021/07/26 06:51:22;;;;;;;18.60;11.10;;;17.40;99.90;;;;;;4950267;28;20197;-53
2021/07/26 06:53:47;;;;;;;20.40;9.83;;;17.40;99.90;;;;;;4948093;29;20178;-54
2021/07/26 06:56:13;;;;;;;19.40;10.67;;;17.50;99.90;;;;;;4931200;29;20429;-52
2021/07/26 06:58:40;;;;;;;19.83;10.40;;;17.60;99.90;;;;;;4955587;28;20178;-54
2021/07/26 07:01:11;;;;;;;40.83;10.47;;;17.70;99.90;;;;;;4947352;28;20447;-53
2021/07/26 07:03:44;;;;;;;24.37;10.97;;;17.80;99.90;;;;;;4946180;29;21010;-52
2021/07/26 07:06:12;;;;;;;18.43;9.70;;;17.90;99.90;;;;;;4953175;28;20433;-54
2021/07/26 07:08:38;;;;;;;21.90;11.67;;;17.90;99.90;;;;;;4952148;28;20474;-55
2021/07/26 07:11:18;;;;;;;26.77;12.53;;;17.90;99.90;;;;;;4942292;28;20445;-53
2021/07/26 07:13:46;;;;;;;21.93;12.47;;;17.90;99.90;;;;;;4948088;29;20866;-54
2021/07/26 07:16:20;;;;;;;22.80;11.90;;;17.90;99.90;;;;;;4930280;29;20426;-52
2021/07/26 07:18:47;;;;;;;27.53;12.90;;;17.90;99.90;;;;;;4951863;28;20481;-55
2021/07/26 07:21:23;;;;;;;25.70;13.53;;;17.90;99.90;;;;;;4945900;28;20529;-56
2021/07/26 07:23:50;;;;;;;22.77;13.70;;;17.90;99.90;;;;;;4929296;29;20776;-54
2021/07/26 07:26:17;;;;;;;22.03;12.47;;;17.90;99.90;;;;;;4951733;28;20978;-54
2021/07/26 07:28:46;;;;;;;21.97;11.83;;;17.90;99.90;;;;;;4946781;28;20444;-53
2021/07/26 07:31:17;;;;;;;23.50;13.53;;;18.00;99.90;;;;;;4948419;28;20826;-53
2021/07/26 07:33:43;;;;;;;34.23;13.57;;;18.10;99.90;;;;;;4942775;28;20925;-51
2021/07/26 07:36:09;;;;;;;32.13;16.13;;;18.20;99.90;;;;;;4952013;28;20552;-53
2021/07/26 07:38:35;;;;;;;37.87;16.77;;;18.40;99.90;;;;;;4956195;28;20516;-54
2021/07/26 07:41:02;;;;;;;38.93;18.00;;;18.60;99.90;;;;;;4944626;28;20622;-52
2021/07/26 07:43:29;;;;;;;38.30;17.70;;;18.90;99.90;;;;;;4946504;28;20434;-53
2021/07/26 07:45:56;;;;;;;39.00;17.50;;;19.20;99.90;;;;;;4947049;28;20975;-55
2021/07/26 07:48:24;;;;;;;29.60;14.33;;;19.40;99.90;;;;;;4947770;28;20963;-53
2021/07/26 07:50:51;;;;;;;24.53;13.07;;;19.70;99.90;;;;;;4945899;28;20423;-53
2021/07/26 07:53:17;;;;;;;18.50;10.30;;;19.70;99.90;;;;;;4947106;28;20434;-54
2021/07/26 07:55:42;;;;;;;23.33;11.77;;;19.80;99.90;;;;;;4951247;28;20794;-54
2021/07/26 07:58:08;;;;;;;21.63;11.83;;;19.80;99.90;;;;;;4957051;28;20453;-54
2021/07/26 08:00:34;;;;;;;27.90;13.03;;;19.80;99.90;;;;;;4932025;29;20182;-55
2021/07/26 08:03:00;;;;;;;31.37;15.77;;;19.90;99.90;;;;;;4929019;29;20282;-54
2021/07/26 08:05:27;;;;;;;25.30;14.30;;;20.00;99.90;;;;;;4929223;29;20175;-54
2021/07/26 08:07:52;;;;;;;31.37;14.00;;;20.10;99.90;;;;;;4927175;29;20563;-54
2021/07/26 08:10:19;;;;;;;15.60;8.83;;;20.10;99.90;;;;;;4947658;29;20433;-54
2021/07/26 08:12:46;;;;;;;15.33;8.83;;;20.20;99.90;;;;;;4945227;28;20182;-55
2021/07/26 08:15:12;;;;;;;23.00;7.87;;;20.20;99.90;;;;;;4946645;28;20426;-55
2021/07/26 08:17:48;;;;;;;12.90;8.50;;;20.20;99.90;;;;;;4932651;28;20508;-56
2021/07/26 08:20:16;;;;;;;13.63;7.63;;;20.20;99.90;;;;;;4950020;28;20552;-57
2021/07/26 08:22:43;;;;;;;11.47;6.70;;;20.20;99.90;;;;;;4924287;29;20472;-57
2021/07/26 08:25:12;;;;;;;8.03;5.53;;;20.10;99.90;;;;;;4948810;28;20584;-56
2021/07/26 08:28:10;;;;;;;8.57;5.30;;;20.10;99.90;;;;;;4952034;28;20870;-57
2021/07/26 08:30:37;;;;;;;9.57;6.77;;;20.00;99.90;;;;;;4896431;28;20446;-56
2021/07/26 08:33:03;;;;;;;9.37;5.40;;;20.00;99.90;;;;;;4948223;28;20414;-55
2021/07/26 08:35:29;;;;;;;10.87;7.60;;;20.00;99.90;;;;;;4946873;28;20491;-57
2021/07/26 08:37:56;;;;;;;13.40;6.83;;;20.00;99.90;;;;;;4954084;28;20446;-55
2021/07/26 08:40:24;;;;;;;11.47;6.93;;;20.00;99.90;;;;;;4946213;28;20434;-55
2021/07/26 08:42:51;;;;;;;10.03;6.83;;;20.00;99.90;;;;;;4945916;28;20877;-54
2021/07/26 08:45:17;;;;;;;13.83;7.60;;;20.00;99.90;;;;;;4940216;29;20911;-55
2021/07/26 08:47:44;;;;;;;14.10;7.73;;;20.00;99.90;;;;;;4951685;28;20735;-55
2021/07/26 08:50:12;;;;;;;11.83;8.47;;;20.10;99.90;;;;;;4928637;29;20427;-56
2021/07/26 08:52:40;;;;;;;12.30;7.70;;;20.10;99.90;;;;;;4949604;29;20781;-56
2021/07/26 08:55:12;;;;;;;15.70;7.80;;;20.10;99.90;;;;;;4945418;28;20431;-55
2021/07/26 08:57:41;;;;;;;16.60;8.90;;;20.10;99.90;;;;;;4955258;28;22230;-56
2021/07/26 09:00:08;;;;;;;17.03;5.50;;;20.20;99.90;;;;;;4932230;29;20950;-56
2021/07/26 09:02:33;;;;;;;10.93;6.80;;;20.30;99.90;;;;;;4939186;28;20518;-55
2021/07/26 09:04:59;;;;;;;10.50;6.67;;;20.30;99.90;;;;;;4956281;28;20422;-55
2021/07/26 09:07:26;;;;;;;10.77;6.67;;;20.40;99.90;;;;;;4954957;28;20194;-55
2021/07/26 09:09:52;;;;;;;10.23;6.20;;;20.40;99.90;;;;;;4950527;28;20189;-55
2021/07/26 09:12:33;;;;;;;8.47;5.70;;;20.50;99.90;;;;;;4948527;29;20513;-55
2021/07/26 09:15:00;;;;;;;8.13;5.43;;;20.60;99.90;;;;;;4957336;28;20432;-54
2021/07/26 09:17:42;;;;;;;6.23;4.00;;;20.70;99.90;;;;;;4948788;28;20955;-56
2021/07/26 09:20:08;;;;;;;7.03;4.70;;;21.00;99.90;;;;;;4944523;29;20951;-55
2021/07/26 09:22:36;;;;;;;4.90;4.37;;;21.20;99.90;;;;;;4951030;29;20975;-56
2021/07/26 09:25:08;;;;;;;6.17;4.33;;;21.30;99.90;;;;;;4947872;28;20441;-57
2021/07/26 09:27:33;;;;;;;4.97;4.00;;;21.50;99.90;;;;;;4946111;28;20942;-57
2021/07/26 09:30:13;;;;;;;4.93;3.90;;;21.60;99.90;;;;;;4933951;29;20828;-57
2021/07/26 09:32:40;;;;;;;5.80;4.07;;;21.60;99.90;;;;;;4947342;29;20182;-57
2021/07/26 09:35:07;;;;;;;4.33;3.80;;;21.70;99.90;;;;;;4952493;28;20470;-53
2021/07/26 09:37:33;;;;;;;6.17;4.40;;;21.80;99.90;;;;;;4947474;28;21024;-54
2021/07/26 09:40:25;;;;;;;6.77;4.13;;;21.90;97.70;;;;;;4952195;28;20490;-57
2021/07/26 09:42:51;;;;;;;7.90;4.30;;;22.00;98.40;;;;;;4950826;28;20195;-55
2021/07/26 09:45:22;;;;;;;5.83;3.60;;;22.00;96.60;;;;;;4944681;28;20437;-55
2021/07/26 09:48:07;;;;;;;4.43;3.50;;;22.10;96.90;;;;;;4956196;28;20212;-57
2021/07/26 09:50:37;;;;;;;5.70;3.70;;;22.40;96.40;;;;;;4943243;29;20510;-55
2021/07/26 09:53:16;;;;;;;5.60;4.20;;;22.40;94.80;;;;;;4944869;29;20469;-56
2021/07/26 09:55:43;;;;;;;7.50;3.80;;;22.50;95.80;;;;;;4937571;29;20432;-56
2021/07/26 09:58:15;;;;;;;6.10;4.30;;;22.70;95.60;;;;;;4948760;28;20453;-55
2021/07/26 10:00:42;;;;;;;3.93;3.57;;;22.70;94.80;;;;;;4951782;28;20468;-56
2021/07/26 10:03:14;;;;;;;5.60;3.50;;;22.90;96.00;;;;;;4956631;28;20462;-56
2021/07/26 10:05:41;;;;;;;4.90;4.00;;;23.00;96.00;;;;;;4955774;28;20470;-56
2021/07/26 10:08:08;;;;;;;3.90;3.50;;;23.10;94.00;;;;;;4941148;29;21073;-56
2021/07/26 10:10:39;;;;;;;4.33;3.60;;;23.10;93.10;;;;;;4947117;29;20494;-56
2021/07/26 10:13:07;;;;;;;4.30;3.30;;;23.20;94.90;;;;;;4929649;29;20426;-57
2021/07/26 10:15:34;;;;;;;6.50;3.93;;;23.50;95.70;;;;;;4952761;28;20440;-56
2021/07/26 10:18:00;;;;;;;7.20;3.80;;;23.50;82.60;;;;;;4953510;28;20559;-56
2021/07/26 10:20:32;;;;;;;5.00;3.60;;;23.50;84.10;;;;;;4925835;29;20462;-56
2021/07/26 10:23:04;;;;;;;5.73;3.83;;;23.50;84.10;;;;;;4951217;28;20204;-56
2021/07/26 10:25:53;;;;;;;3.90;3.57;;;23.70;87.20;;;;;;4957586;28;20426;-55
2021/07/26 10:28:30;;;;;;;5.30;3.87;;;23.80;80.50;;;;;;4930640;29;20907;-56
2021/07/26 10:30:57;;;;;;;4.93;3.27;;;23.90;85.40;;;;;;4952387;28;20547;-56
2021/07/26 10:33:23;;;;;;;4.90;3.70;;;23.90;76.80;;;;;;4953250;28;20469;-56
2021/07/26 10:35:52;;;;;;;3.70;3.27;;;24.00;73.80;;;;;;4941958;28;20957;-54
2021/07/26 10:38:43;;;;;;;4.93;3.57;;;24.10;78.10;;;;;;4951954;28;20449;-56
2021/07/26 10:41:09;;;;;;;8.13;3.57;;;24.20;80.00;;;;;;4953441;28;20566;-57
2021/07/26 10:43:55;;;;;;;6.10;3.80;;;24.40;77.50;;;;;;4947126;28;20512;-55
2021/07/26 10:46:21;;;;;;;3.47;3.07;;;24.60;78.10;;;;;;4928643;29;20432;-55
2021/07/26 10:48:53;;;;;;;5.07;4.10;;;24.70;70.40;;;;;;4948490;28;20589;-56
2021/07/26 10:51:42;;;;;;;4.33;3.63;;;24.80;72.80;;;;;;4945480;28;20429;-58
2021/07/26 10:54:08;;;;;;;5.27;3.83;;;25.00;71.60;;;;;;4936783;28;20940;-58
2021/07/26 10:57:07;;;;;;;3.60;3.30;;;25.10;71.40;;;;;;4944743;28;20549;-56
2021/07/26 11:00:10;;;;;;;7.80;3.67;;;25.20;70.20;;;;;;4888384;28;20532;-56
2021/07/26 11:02:40;;;;;;;4.30;3.90;;;25.40;71.10;;;;;;4941661;28;21049;-55
2021/07/26 11:05:29;;;;;;;4.53;3.53;;;25.20;66.70;;;;;;4950288;28;20461;-55
2021/07/26 11:08:13;;;;;;;5.20;3.60;;;25.00;69.60;;;;;;4935740;28;20454;-60
2021/07/26 11:10:53;;;;;;;4.30;3.90;;;25.10;73.00;;;;;;4939418;28;20544;-58
2021/07/26 11:13:19;;;;;;;3.70;3.30;;;25.40;70.30;;;;;;4942526;28;20426;-55
2021/07/26 11:15:53;;;;;;;4.50;3.67;;;25.60;70.10;;;;;;4926877;29;20493;-57
2021/07/26 11:18:46;;;;;;;4.80;3.77;;;25.70;66.00;;;;;;4947685;28;20194;-58
2021/07/26 11:21:18;;;;;;;4.37;3.70;;;25.80;66.70;;;;;;4941207;29;20466;-57
2021/07/26 11:23:48;;;;;;;9.40;3.57;;;25.70;64.50;;;;;;4931204;29;20846;-57
2021/07/26 11:26:19;;;;;;;5.00;3.87;;;25.60;63.40;;;;;;4942881;28;20457;-57
2021/07/26 11:28:46;;;;;;;4.20;2.93;;;25.60;62.10;;;;;;4928195;29;20469;-56
2021/07/26 11:31:22;;;;;;;3.93;3.03;;;25.70;62.20;;;;;;4943821;28;20548;-57
2021/07/26 11:33:51;;;;;;;5.00;3.60;;;25.50;60.50;;;;;;4943383;28;20441;-57
2021/07/26 11:36:16;;;;;;;4.40;3.27;;;25.30;63.00;;;;;;4947751;28;20434;-56
2021/07/26 11:39:00;;;;;;;4.10;3.63;;;25.20;65.40;;;;;;4949240;28;21003;-56
2021/07/26 11:41:26;;;;;;;5.53;3.43;;;24.90;65.90;;;;;;4945950;28;20214;-55
2021/07/26 11:43:53;;;;;;;6.53;4.23;;;24.70;69.80;;;;;;4938804;28;21036;-57
2021/07/26 11:46:20;;;;;;;4.87;3.27;;;24.50;69.10;;;;;;4945721;28;20441;-57
2021/07/26 11:48:50;;;;;;;4.30;3.27;;;24.20;70.00;;;;;;4942092;28;20419;-57
2021/07/26 11:51:30;;;;;;;4.93;3.13;;;24.00;69.10;;;;;;4947394;28;20421;-57
2021/07/26 11:54:00;;;;;;;5.90;3.10;;;23.80;68.80;;;;;;4933695;29;21007;-57
2021/07/26 11:56:28;;;;;;;4.50;4.10;;;23.70;70.40;;;;;;4945702;28;20460;-57
2021/07/26 11:59:15;;;;;;;3.90;3.50;;;23.60;75.90;;;;;;4948388;28;20436;-58
2021/07/26 12:01:45;;;;;;;4.77;3.37;;;23.50;72.90;;;;;;4945472;28;20462;-56
2021/07/26 12:04:12;;;;;;;6.43;3.27;;;23.50;75.30;;;;;;4945027;28;20437;-56
2021/07/26 12:06:54;;;;;;;5.33;3.70;;;23.50;77.90;;;;;;4944345;28;20445;-57
2021/07/26 12:09:21;;;;;;;5.83;3.30;;;23.50;81.90;;;;;;4945125;28;20438;-57
2021/07/26 12:11:46;;;;;;;4.10;3.30;;;23.70;79.20;;;;;;4928155;29;20433;-56
2021/07/26 12:14:30;;;;;;;5.43;3.80;;;23.90;68.60;;;;;;4950151;28;20436;-57
2021/07/26 12:17:04;;;;;;;4.50;3.47;;;24.10;71.00;;;;;;4943840;28;20216;-57
2021/07/26 12:19:31;;;;;;;3.70;2.90;;;24.00;70.30;;;;;;4952671;28;20464;-56
2021/07/26 12:22:12;;;;;;;6.67;2.83;;;23.60;70.10;;;;;;4947888;28;20468;-55
2021/07/26 12:24:58;;;;;;;6.70;3.50;;;23.10;68.40;;;;;;4946163;28;20891;-55
2021/07/26 12:27:28;;;;;;;12.90;3.40;;;22.60;71.90;;;;;;4947725;28;20515;-56
2021/07/26 12:29:57;;;;;;;10.20;4.50;;;22.20;90.30;;;;;;4949250;28;20465;-56
2021/07/26 12:32:23;;;;;;;6.13;3.60;;;21.70;96.10;;;;;;4956571;28;20424;-56
2021/07/26 12:35:17;;;;;;;4.80;3.63;;;21.20;98.40;;;;;;4945508;28;20434;-55
2021/07/26 12:38:16;;;;;;;6.80;3.80;;;20.70;99.90;;;;;;4938738;29;20558;-56
2021/07/26 12:40:44;;;;;;;12.47;5.30;;;20.20;99.90;;;;;;4950786;29;20466;-56
2021/07/26 12:43:17;;;;;;;4.93;3.63;;;19.80;99.90;;;;;;4951752;28;21042;-55
2021/07/26 12:45:56;;;;;;;8.23;3.20;;;19.40;99.90;;;;;;4956718;28;20421;-55
2021/07/26 12:48:22;;;;;;;8.37;4.17;;;19.10;99.90;;;;;;4941870;28;20432;-56